Danville Regional Airport
KDAN : now visible

Airfield :











YOU CAN JOIN US ON...

 
LOGIN :

Register | Disclaimer

   EN    FR    IT 

 









Legend :    VFR   Marginal VFR   IFR   Intensive IFR   Very Intensive IFR
Visi :
Ceiling :
>= 8 km
>= 3000ft
5 to 8 km
1000 to 3000 ft
1500m to 5 km
500 to 1000 ft
800 to 1500m
200 to 500 ft
< 800m
< 200 ft
Symbols :   Thunderstorms  Fog  Heavy snow  Heavy precipitations  Wind > 20 kt






- Airport Elevation : 571 ft
- IATA code : DAN


KDAN - Danville Regional

CURRENT METAR :
  • 280811Z AUTO 23003KT 1/2SM FG VV001 12/12 A3013 RMK AO2 T01220117

EXPIRED METARs :
  • 280753Z AUTO 00000KT 1/4SM FG VV002 13/12 A3013 RMK AO2 SLP194 T01280122
  • 280735Z AUTO 00000KT 1/2SM FG VV002 13/12 A3013 RMK AO2 T01280122
  • 280705Z AUTO 00000KT 1/4SM FG VV002 13/12 A3013 RMK AO2 T01280122
  • 280653Z AUTO 00000KT 1/4SM FG VV001 13/13 A3014 RMK AO2 SLP196 T01330128
  • 280621Z AUTO 21003KT 1/4SM FG VV001 13/13 A3014 RMK AO2 T01330128
  • 280608Z AUTO 00000KT 1/2SM FG VV001 13/13 A3014 RMK AO2 T01330128
  • 280553Z AUTO 23003KT 1/4SM FG VV003 14/13 A3014 RMK AO2 SLP197 T01390128 10183 20128 56012
  • 280525Z AUTO 00000KT 3/4SM BR VV003 12/12 A3014 RMK AO2 T01220117
  • 280520Z AUTO 00000KT 1 1/4SM BR SCT003 13/12 A3014 RMK AO2 T01280117

TAF KDAN
Valid from the 28 at 06:00 until the 29 at 06:00 UTC


280540Z 2806/2906 VRB03KT 1/2SM FG VV003
TEMPO 2808/2812 1/4SM FG VV001
FM281300 00000KT 1SM BR VV002
FM281400 VRB03KT 4SM BR SCT003 OVC020
FM281500 22006KT P6SM SCT020 BKN050
FM282100 20005KT P6SM -RA BKN020 OVC050
KZDC FIR / North America



MET'MAP, your aeronautical weather chart ! - Copyright ORBIFLY December 2007 - Disclaimer

ORBIFLY MET'MAP TEAM :

Programming & Development : Alexandra Zaïnal
Concept & original design : Baudouin d'Aumeries
Assistance for programming : Marc-Olivier Méhu
Technical & hardware support : Manuel Goepfert

Contact : metmap@orbifly.com




SOURCES & CREDITS :

   NOAA       Earth
Advisory